sensor_id;sensor_type;location;lat;lon;timestamp;P1;durP1;ratioP1;P2;durP2;ratioP2
68942;SDS011;60852;52.190;4.422;2023-04-30T00:01:39;21.37;;;20.65;;
68942;SDS011;60852;52.190;4.422;2023-04-30T00:04:05;21.91;;;21.02;;
68942;SDS011;60852;52.190;4.422;2023-04-30T00:06:30;22.95;;;22.27;;
68942;SDS011;60852;52.190;4.422;2023-04-30T00:08:56;22.49;;;22.12;;
68942;SDS011;60852;52.190;4.422;2023-04-30T00:11:21;23.12;;;22.52;;
68942;SDS011;60852;52.190;4.422;2023-04-30T00:13:47;23.29;;;22.77;;
68942;SDS011;60852;52.190;4.422;2023-04-30T00:16:13;24.36;;;23.77;;
68942;SDS011;60852;52.190;4.422;2023-04-30T00:18:39;24.56;;;23.77;;
68942;SDS011;60852;52.190;4.422;2023-04-30T00:21:04;25.58;;;24.97;;
68942;SDS011;60852;52.190;4.422;2023-04-30T00:23:30;25.75;;;24.96;;
68942;SDS011;60852;52.190;4.422;2023-04-30T00:25:55;25.84;;;25.25;;
68942;SDS011;60852;52.190;4.422;2023-04-30T00:28:21;25.68;;;24.89;;
68942;SDS011;60852;52.190;4.422;2023-04-30T00:30:46;26.55;;;25.96;;
68942;SDS011;60852;52.190;4.422;2023-04-30T00:33:11;27.24;;;26.65;;
68942;SDS011;60852;52.190;4.422;2023-04-30T00:35:37;27.23;;;26.54;;
68942;SDS011;60852;52.190;4.422;2023-04-30T00:38:02;27.77;;;27.01;;
68942;SDS011;60852;52.190;4.422;2023-04-30T00:40:28;28.19;;;27.41;;
68942;SDS011;60852;52.190;4.422;2023-04-30T00:42:54;27.83;;;27.05;;
68942;SDS011;60852;52.190;4.422;2023-04-30T00:45:22;28.90;;;28.19;;
68942;SDS011;60852;52.190;4.422;2023-04-30T00:47:48;27.47;;;26.71;;
68942;SDS011;60852;52.190;4.422;2023-04-30T00:50:14;27.70;;;27.08;;
68942;SDS011;60852;52.190;4.422;2023-04-30T00:52:43;28.62;;;27.72;;
68942;SDS011;60852;52.190;4.422;2023-04-30T00:55:12;28.12;;;27.09;;
68942;SDS011;60852;52.190;4.422;2023-04-30T00:57:38;28.77;;;27.72;;
68942;SDS011;60852;52.190;4.422;2023-04-30T01:00:05;27.27;;;26.74;;
68942;SDS011;60852;52.190;4.422;2023-04-30T01:02:35;27.68;;;26.98;;
68942;SDS011;60852;52.190;4.422;2023-04-30T01:05:05;28.01;;;27.26;;
68942;SDS011;60852;52.190;4.422;2023-04-30T01:07:31;28.14;;;27.39;;
68942;SDS011;60852;52.190;4.422;2023-04-30T01:09:57;28.48;;;27.76;;
68942;SDS011;60852;52.190;4.422;2023-04-30T01:12:36;27.82;;;26.97;;
68942;SDS011;60852;52.190;4.422;2023-04-30T01:15:27;27.68;;;26.88;;
68942;SDS011;60852;52.190;4.422;2023-04-30T01:18:05;28.58;;;27.54;;
68942;SDS011;60852;52.190;4.422;2023-04-30T01:20:38;29.14;;;27.97;;
68942;SDS011;60852;52.190;4.422;2023-04-30T01:28:35;27.19;;;26.30;;
68942;SDS011;60852;52.190;4.422;2023-04-30T01:31:02;27.34;;;26.71;;
68942;SDS011;60852;52.190;4.422;2023-04-30T01:33:27;27.91;;;27.11;;
68942;SDS011;60852;52.190;4.422;2023-04-30T01:39:06;27.68;;;26.75;;
68942;SDS011;60852;52.190;4.422;2023-04-30T01:47:34;29.43;;;28.55;;
68942;SDS011;60852;52.190;4.422;2023-04-30T01:52:41;29.81;;;28.83;;
68942;SDS011;60852;52.190;4.422;2023-04-30T01:55:13;30.50;;;29.57;;
68942;SDS011;60852;52.190;4.422;2023-04-30T01:57:51;41.18;;;40.29;;
68942;SDS011;60852;52.190;4.422;2023-04-30T02:00:20;58.74;;;57.31;;
68942;SDS011;60852;52.190;4.422;2023-04-30T02:02:45;41.02;;;40.25;;
68942;SDS011;60852;52.190;4.422;2023-04-30T02:05:11;36.98;;;36.08;;
68942;SDS011;60852;52.190;4.422;2023-04-30T02:07:38;32.95;;;31.95;;
68942;SDS011;60852;52.190;4.422;2023-04-30T02:10:05;29.92;;;29.07;;
68942;SDS011;60852;52.190;4.422;2023-04-30T02:12:32;30.07;;;29.17;;
68942;SDS011;60852;52.190;4.422;2023-04-30T02:14:58;29.20;;;28.25;;
68942;SDS011;60852;52.190;4.422;2023-04-30T02:17:23;29.56;;;28.59;;
68942;SDS011;60852;52.190;4.422;2023-04-30T02:19:48;29.78;;;28.89;;
68942;SDS011;60852;52.190;4.422;2023-04-30T02:22:14;30.92;;;29.78;;
68942;SDS011;60852;52.190;4.422;2023-04-30T02:24:40;35.48;;;34.42;;
68942;SDS011;60852;52.190;4.422;2023-04-30T02:27:05;33.84;;;33.09;;
68942;SDS011;60852;52.190;4.422;2023-04-30T02:29:31;30.35;;;29.29;;
68942;SDS011;60852;52.190;4.422;2023-04-30T02:31:57;30.06;;;29.11;;
68942;SDS011;60852;52.190;4.422;2023-04-30T02:34:23;29.45;;;28.57;;
68942;SDS011;60852;52.190;4.422;2023-04-30T02:36:49;29.52;;;28.49;;
68942;SDS011;60852;52.190;4.422;2023-04-30T02:39:14;27.76;;;26.80;;
68942;SDS011;60852;52.190;4.422;2023-04-30T02:41:40;27.29;;;26.56;;
68942;SDS011;60852;52.190;4.422;2023-04-30T02:44:05;27.08;;;26.44;;
68942;SDS011;60852;52.190;4.422;2023-04-30T02:46:31;26.29;;;25.58;;
68942;SDS011;60852;52.190;4.422;2023-04-30T02:48:56;26.57;;;25.76;;
68942;SDS011;60852;52.190;4.422;2023-04-30T02:51:22;26.84;;;25.99;;
68942;SDS011;60852;52.190;4.422;2023-04-30T02:53:47;27.12;;;26.22;;
68942;SDS011;60852;52.190;4.422;2023-04-30T02:56:13;26.91;;;26.09;;
68942;SDS011;60852;52.190;4.422;2023-04-30T02:58:39;26.22;;;25.39;;
68942;SDS011;60852;52.190;4.422;2023-04-30T03:01:05;25.59;;;24.69;;
68942;SDS011;60852;52.190;4.422;2023-04-30T03:03:30;25.33;;;24.50;;
68942;SDS011;60852;52.190;4.422;2023-04-30T03:05:56;24.70;;;23.91;;
68942;SDS011;60852;52.190;4.422;2023-04-30T03:08:23;24.38;;;23.55;;
68942;SDS011;60852;52.190;4.422;2023-04-30T03:10:49;23.28;;;22.44;;
68942;SDS011;60852;52.190;4.422;2023-04-30T03:13:14;22.27;;;21.57;;
68942;SDS011;60852;52.190;4.422;2023-04-30T03:15:40;21.33;;;20.57;;
68942;SDS011;60852;52.190;4.422;2023-04-30T03:18:05;21.26;;;20.57;;
68942;SDS011;60852;52.190;4.422;2023-04-30T03:20:31;19.60;;;19.25;;
68942;SDS011;60852;52.190;4.422;2023-04-30T03:22:56;19.23;;;18.74;;
68942;SDS011;60852;52.190;4.422;2023-04-30T03:25:22;18.29;;;18.17;;
68942;SDS011;60852;52.190;4.422;2023-04-30T03:27:47;19.01;;;18.43;;
68942;SDS011;60852;52.190;4.422;2023-04-30T03:30:13;18.13;;;17.85;;
68942;SDS011;60852;52.190;4.422;2023-04-30T03:32:38;18.06;;;17.71;;
68942;SDS011;60852;52.190;4.422;2023-04-30T03:35:04;17.29;;;17.02;;
68942;SDS011;60852;52.190;4.422;2023-04-30T03:37:30;18.28;;;17.68;;
68942;SDS011;60852;52.190;4.422;2023-04-30T03:39:55;18.23;;;17.86;;
68942;SDS011;60852;52.190;4.422;2023-04-30T03:42:21;17.15;;;16.91;;
68942;SDS011;60852;52.190;4.422;2023-04-30T03:44:46;18.52;;;17.95;;
68942;SDS011;60852;52.190;4.422;2023-04-30T03:47:12;17.75;;;17.30;;
68942;SDS011;60852;52.190;4.422;2023-04-30T03:49:38;17.47;;;17.09;;
68942;SDS011;60852;52.190;4.422;2023-04-30T03:52:03;17.22;;;16.90;;
68942;SDS011;60852;52.190;4.422;2023-04-30T03:54:29;17.72;;;17.31;;
68942;SDS011;60852;52.190;4.422;2023-04-30T03:56:55;18.23;;;17.60;;
68942;SDS011;60852;52.190;4.422;2023-04-30T03:59:21;17.80;;;17.27;;
68942;SDS011;60852;52.190;4.422;2023-04-30T04:01:47;17.51;;;17.21;;
68942;SDS011;60852;52.190;4.422;2023-04-30T04:04:12;17.39;;;16.98;;
68942;SDS011;60852;52.190;4.422;2023-04-30T04:06:38;17.88;;;17.36;;
68942;SDS011;60852;52.190;4.422;2023-04-30T04:09:04;17.40;;;16.87;;
68942;SDS011;60852;52.190;4.422;2023-04-30T04:11:30;16.87;;;16.20;;
68942;SDS011;60852;52.190;4.422;2023-04-30T04:13:55;17.29;;;16.76;;
68942;SDS011;60852;52.190;4.422;2023-04-30T04:16:21;17.11;;;16.49;;
68942;SDS011;60852;52.190;4.422;2023-04-30T04:18:46;16.26;;;15.77;;
68942;SDS011;60852;52.190;4.422;2023-04-30T04:21:12;16.68;;;16.21;;
68942;SDS011;60852;52.190;4.422;2023-04-30T04:23:37;16.28;;;15.89;;
68942;SDS011;60852;52.190;4.422;2023-04-30T04:26:03;15.86;;;15.44;;
68942;SDS011;60852;52.190;4.422;2023-04-30T04:28:28;15.80;;;15.38;;
68942;SDS011;60852;52.190;4.422;2023-04-30T04:30:54;15.62;;;15.36;;
68942;SDS011;60852;52.190;4.422;2023-04-30T04:33:19;15.89;;;15.58;;
68942;SDS011;60852;52.190;4.422;2023-04-30T04:35:45;15.34;;;15.05;;
68942;SDS011;60852;52.190;4.422;2023-04-30T04:38:10;15.29;;;15.08;;
68942;SDS011;60852;52.190;4.422;2023-04-30T04:40:36;15.87;;;15.30;;
68942;SDS011;60852;52.190;4.422;2023-04-30T04:43:02;14.52;;;14.28;;
68942;SDS011;60852;52.190;4.422;2023-04-30T04:45:27;15.08;;;14.55;;
68942;SDS011;60852;52.190;4.422;2023-04-30T04:47:53;14.40;;;14.29;;
68942;SDS011;60852;52.190;4.422;2023-04-30T04:50:18;14.93;;;14.66;;
68942;SDS011;60852;52.190;4.422;2023-04-30T04:52:44;13.78;;;13.60;;
68942;SDS011;60852;52.190;4.422;2023-04-30T04:55:09;13.06;;;12.74;;
68942;SDS011;60852;52.190;4.422;2023-04-30T04:57:36;14.04;;;13.69;;
68942;SDS011;60852;52.190;4.422;2023-04-30T05:00:01;13.62;;;13.30;;
68942;SDS011;60852;52.190;4.422;2023-04-30T05:02:30;12.73;;;12.66;;
68942;SDS011;60852;52.190;4.422;2023-04-30T05:04:55;12.64;;;12.52;;
68942;SDS011;60852;52.190;4.422;2023-04-30T05:07:21;11.87;;;11.73;;
68942;SDS011;60852;52.190;4.422;2023-04-30T05:09:46;11.83;;;11.74;;
68942;SDS011;60852;52.190;4.422;2023-04-30T05:12:12;11.79;;;11.48;;
68942;SDS011;60852;52.190;4.422;2023-04-30T05:14:38;11.72;;;11.17;;
68942;SDS011;60852;52.190;4.422;2023-04-30T05:17:04;11.10;;;10.93;;
68942;SDS011;60852;52.190;4.422;2023-04-30T05:19:31;11.23;;;10.91;;
68942;SDS011;60852;52.190;4.422;2023-04-30T05:21:56;10.52;;;10.47;;
68942;SDS011;60852;52.190;4.422;2023-04-30T05:24:22;10.98;;;10.95;;
68942;SDS011;60852;52.190;4.422;2023-04-30T05:26:48;10.83;;;10.66;;
68942;SDS011;60852;52.190;4.422;2023-04-30T05:29:13;10.86;;;10.74;;
68942;SDS011;60852;52.190;4.422;2023-04-30T05:31:39;11.02;;;10.92;;
68942;SDS011;60852;52.190;4.422;2023-04-30T05:34:04;12.61;;;12.36;;
68942;SDS011;60852;52.190;4.422;2023-04-30T05:36:30;11.64;;;11.52;;
68942;SDS011;60852;52.190;4.422;2023-04-30T05:38:56;12.25;;;12.08;;
68942;SDS011;60852;52.190;4.422;2023-04-30T05:41:22;11.79;;;11.71;;
68942;SDS011;60852;52.190;4.422;2023-04-30T05:43:47;11.56;;;11.56;;
68942;SDS011;60852;52.190;4.422;2023-04-30T05:46:12;11.20;;;11.19;;
68942;SDS011;60852;52.190;4.422;2023-04-30T05:48:38;11.53;;;11.52;;
68942;SDS011;60852;52.190;4.422;2023-04-30T05:51:04;11.32;;;11.29;;
68942;SDS011;60852;52.190;4.422;2023-04-30T05:53:31;11.89;;;11.63;;
68942;SDS011;60852;52.190;4.422;2023-04-30T05:55:56;11.72;;;11.43;;
68942;SDS011;60852;52.190;4.422;2023-04-30T05:58:22;10.98;;;10.98;;
68942;SDS011;60852;52.190;4.422;2023-04-30T06:00:48;10.74;;;10.74;;
68942;SDS011;60852;52.190;4.422;2023-04-30T06:03:16;11.18;;;10.94;;
68942;SDS011;60852;52.190;4.422;2023-04-30T06:05:42;11.30;;;10.85;;
68942;SDS011;60852;52.190;4.422;2023-04-30T06:08:08;10.54;;;10.44;;
68942;SDS011;60852;52.190;4.422;2023-04-30T06:10:33;10.94;;;10.94;;
68942;SDS011;60852;52.190;4.422;2023-04-30T06:12:59;11.20;;;11.18;;
68942;SDS011;60852;52.190;4.422;2023-04-30T06:15:25;10.85;;;10.81;;
68942;SDS011;60852;52.190;4.422;2023-04-30T06:17:51;10.57;;;10.57;;
68942;SDS011;60852;52.190;4.422;2023-04-30T06:20:16;10.97;;;10.93;;
68942;SDS011;60852;52.190;4.422;2023-04-30T06:22:42;10.87;;;10.87;;
68942;SDS011;60852;52.190;4.422;2023-04-30T06:25:07;10.64;;;10.64;;
68942;SDS011;60852;52.190;4.422;2023-04-30T06:27:33;10.39;;;10.39;;
68942;SDS011;60852;52.190;4.422;2023-04-30T06:29:59;10.01;;;10.01;;
68942;SDS011;60852;52.190;4.422;2023-04-30T06:32:25;10.24;;;10.24;;
68942;SDS011;60852;52.190;4.422;2023-04-30T06:34:50;10.18;;;10.17;;
68942;SDS011;60852;52.190;4.422;2023-04-30T06:37:16;10.51;;;10.40;;
68942;SDS011;60852;52.190;4.422;2023-04-30T06:39:42;10.48;;;10.23;;
68942;SDS011;60852;52.190;4.422;2023-04-30T06:42:08;10.14;;;10.03;;
68942;SDS011;60852;52.190;4.422;2023-04-30T06:44:34;9.31;;;9.29;;
68942;SDS011;60852;52.190;4.422;2023-04-30T06:46:59;9.90;;;9.88;;
68942;SDS011;60852;52.190;4.422;2023-04-30T06:49:24;10.10;;;9.93;;
68942;SDS011;60852;52.190;4.422;2023-04-30T06:51:50;9.86;;;9.74;;
68942;SDS011;60852;52.190;4.422;2023-04-30T06:54:15;9.99;;;9.97;;
68942;SDS011;60852;52.190;4.422;2023-04-30T06:56:41;9.78;;;9.77;;
68942;SDS011;60852;52.190;4.422;2023-04-30T06:59:08;10.52;;;10.49;;
68942;SDS011;60852;52.190;4.422;2023-04-30T07:01:33;10.59;;;10.54;;
68942;SDS011;60852;52.190;4.422;2023-04-30T07:03:59;10.27;;;10.15;;
68942;SDS011;60852;52.190;4.422;2023-04-30T07:06:25;9.87;;;9.87;;
68942;SDS011;60852;52.190;4.422;2023-04-30T07:08:51;10.49;;;10.49;;
68942;SDS011;60852;52.190;4.422;2023-04-30T07:11:16;11.01;;;10.98;;
68942;SDS011;60852;52.190;4.422;2023-04-30T07:13:42;10.20;;;10.18;;
68942;SDS011;60852;52.190;4.422;2023-04-30T07:16:07;10.26;;;10.26;;
68942;SDS011;60852;52.190;4.422;2023-04-30T07:18:34;10.06;;;10.05;;
68942;SDS011;60852;52.190;4.422;2023-04-30T07:21:00;10.84;;;10.83;;
68942;SDS011;60852;52.190;4.422;2023-04-30T07:23:26;10.84;;;10.82;;
68942;SDS011;60852;52.190;4.422;2023-04-30T07:25:51;11.43;;;11.43;;
68942;SDS011;60852;52.190;4.422;2023-04-30T07:28:16;10.99;;;10.99;;
68942;SDS011;60852;52.190;4.422;2023-04-30T07:30:42;12.22;;;12.22;;
68942;SDS011;60852;52.190;4.422;2023-04-30T07:33:07;11.52;;;11.52;;
68942;SDS011;60852;52.190;4.422;2023-04-30T07:35:33;9.64;;;9.64;;
68942;SDS011;60852;52.190;4.422;2023-04-30T07:37:59;10.11;;;10.11;;
68942;SDS011;60852;52.190;4.422;2023-04-30T07:40:25;9.83;;;9.83;;
68942;SDS011;60852;52.190;4.422;2023-04-30T07:42:50;9.86;;;9.79;;
68942;SDS011;60852;52.190;4.422;2023-04-30T07:45:15;10.17;;;10.07;;
68942;SDS011;60852;52.190;4.422;2023-04-30T07:47:41;10.26;;;10.14;;
68942;SDS011;60852;52.190;4.422;2023-04-30T07:50:06;10.23;;;10.23;;
68942;SDS011;60852;52.190;4.422;2023-04-30T07:52:32;10.06;;;10.06;;
68942;SDS011;60852;52.190;4.422;2023-04-30T07:54:58;9.68;;;9.68;;
68942;SDS011;60852;52.190;4.422;2023-04-30T07:57:24;9.75;;;9.74;;
68942;SDS011;60852;52.190;4.422;2023-04-30T07:59:52;9.76;;;9.63;;
68942;SDS011;60852;52.190;4.422;2023-04-30T08:02:18;10.15;;;9.95;;
68942;SDS011;60852;52.190;4.422;2023-04-30T08:04:44;9.47;;;9.44;;
68942;SDS011;60852;52.190;4.422;2023-04-30T08:07:09;9.87;;;9.86;;
68942;SDS011;60852;52.190;4.422;2023-04-30T08:09:35;10.01;;;10.00;;
68942;SDS011;60852;52.190;4.422;2023-04-30T08:12:00;9.71;;;9.71;;
68942;SDS011;60852;52.190;4.422;2023-04-30T08:14:26;9.93;;;9.93;;
68942;SDS011;60852;52.190;4.422;2023-04-30T08:16:51;10.03;;;10.02;;
68942;SDS011;60852;52.190;4.422;2023-04-30T08:19:16;9.54;;;9.48;;
68942;SDS011;60852;52.190;4.422;2023-04-30T08:21:42;8.78;;;8.74;;
68942;SDS011;60852;52.190;4.422;2023-04-30T08:24:07;9.92;;;9.92;;
68942;SDS011;60852;52.190;4.422;2023-04-30T08:26:33;10.09;;;10.09;;
68942;SDS011;60852;52.190;4.422;2023-04-30T08:28:58;9.31;;;9.31;;
68942;SDS011;60852;52.190;4.422;2023-04-30T08:31:24;9.13;;;9.13;;
68942;SDS011;60852;52.190;4.422;2023-04-30T08:33:49;9.96;;;9.96;;
68942;SDS011;60852;52.190;4.422;2023-04-30T08:36:15;10.20;;;10.20;;
68942;SDS011;60852;52.190;4.422;2023-04-30T08:38:40;9.88;;;9.88;;
68942;SDS011;60852;52.190;4.422;2023-04-30T08:41:12;9.99;;;9.99;;
68942;SDS011;60852;52.190;4.422;2023-04-30T08:43:39;10.30;;;10.30;;
68942;SDS011;60852;52.190;4.422;2023-04-30T08:46:08;9.50;;;9.46;;
68942;SDS011;60852;52.190;4.422;2023-04-30T08:48:37;9.60;;;9.60;;
68942;SDS011;60852;52.190;4.422;2023-04-30T08:51:04;9.04;;;9.04;;
68942;SDS011;60852;52.190;4.422;2023-04-30T08:53:33;8.12;;;8.12;;
68942;SDS011;60852;52.190;4.422;2023-04-30T08:56:02;8.29;;;8.29;;
68942;SDS011;60852;52.190;4.422;2023-04-30T08:58:28;8.33;;;8.33;;
68942;SDS011;60852;52.190;4.422;2023-04-30T09:00:55;8.82;;;8.76;;
68942;SDS011;60852;52.190;4.422;2023-04-30T09:03:23;9.03;;;9.03;;
68942;SDS011;60852;52.190;4.422;2023-04-30T09:05:49;8.83;;;8.83;;
68942;SDS011;60852;52.190;4.422;2023-04-30T09:08:39;8.95;;;8.95;;
68942;SDS011;60852;52.190;4.422;2023-04-30T09:11:25;9.40;;;9.40;;
68942;SDS011;60852;52.190;4.422;2023-04-30T09:13:59;9.83;;;9.76;;
68942;SDS011;60852;52.190;4.422;2023-04-30T09:16:26;9.16;;;9.11;;
68942;SDS011;60852;52.190;4.422;2023-04-30T09:18:58;8.84;;;8.84;;
68942;SDS011;60852;52.190;4.422;2023-04-30T09:21:30;8.61;;;8.61;;
68942;SDS011;60852;52.190;4.422;2023-04-30T09:24:00;8.36;;;8.36;;
68942;SDS011;60852;52.190;4.422;2023-04-30T09:26:36;8.06;;;8.06;;
68942;SDS011;60852;52.190;4.422;2023-04-30T09:29:03;7.96;;;7.96;;
68942;SDS011;60852;52.190;4.422;2023-04-30T09:31:35;8.17;;;8.08;;
68942;SDS011;60852;52.190;4.422;2023-04-30T09:34:03;8.30;;;8.30;;
68942;SDS011;60852;52.190;4.422;2023-04-30T09:36:29;8.22;;;8.22;;
68942;SDS011;60852;52.190;4.422;2023-04-30T09:38:55;8.66;;;8.50;;
68942;SDS011;60852;52.190;4.422;2023-04-30T09:41:30;9.28;;;9.28;;
68942;SDS011;60852;52.190;4.422;2023-04-30T09:43:55;8.17;;;8.17;;
68942;SDS011;60852;52.190;4.422;2023-04-30T09:46:29;7.74;;;7.74;;
68942;SDS011;60852;52.190;4.422;2023-04-30T09:48:57;7.80;;;7.80;;
68942;SDS011;60852;52.190;4.422;2023-04-30T09:51:23;7.42;;;7.42;;
68942;SDS011;60852;52.190;4.422;2023-04-30T09:53:51;6.53;;;6.53;;
68942;SDS011;60852;52.190;4.422;2023-04-30T09:56:23;6.27;;;6.27;;
68942;SDS011;60852;52.190;4.422;2023-04-30T09:58:53;6.53;;;6.53;;
68942;SDS011;60852;52.190;4.422;2023-04-30T10:01:22;6.29;;;6.29;;
68942;SDS011;60852;52.190;4.422;2023-04-30T10:03:53;6.26;;;6.23;;
68942;SDS011;60852;52.190;4.422;2023-04-30T10:06:20;5.63;;;5.62;;
68942;SDS011;60852;52.190;4.422;2023-04-30T10:08:47;5.71;;;5.56;;
68942;SDS011;60852;52.190;4.422;2023-04-30T10:11:17;5.50;;;5.30;;
68942;SDS011;60852;52.190;4.422;2023-04-30T10:13:53;6.26;;;6.26;;
68942;SDS011;60852;52.190;4.422;2023-04-30T10:19:02;6.42;;;6.42;;
68942;SDS011;60852;52.190;4.422;2023-04-30T10:21:34;5.60;;;5.60;;
68942;SDS011;60852;52.190;4.422;2023-04-30T10:24:05;5.63;;;5.63;;
68942;SDS011;60852;52.190;4.422;2023-04-30T10:26:33;6.57;;;6.57;;
68942;SDS011;60852;52.190;4.422;2023-04-30T10:28:59;7.20;;;7.20;;
68942;SDS011;60852;52.190;4.422;2023-04-30T10:31:26;7.34;;;7.34;;
68942;SDS011;60852;52.190;4.422;2023-04-30T10:36:44;6.28;;;6.28;;
68942;SDS011;60852;52.190;4.422;2023-04-30T10:39:17;6.11;;;6.11;;
68942;SDS011;60852;52.190;4.422;2023-04-30T10:41:45;6.02;;;6.02;;
68942;SDS011;60852;52.190;4.422;2023-04-30T10:44:12;6.70;;;6.70;;
68942;SDS011;60852;52.190;4.422;2023-04-30T10:46:39;6.27;;;6.27;;
68942;SDS011;60852;52.190;4.422;2023-04-30T10:49:05;6.31;;;6.31;;
68942;SDS011;60852;52.190;4.422;2023-04-30T10:51:43;5.95;;;5.95;;
68942;SDS011;60852;52.190;4.422;2023-04-30T10:54:15;5.51;;;5.51;;
68942;SDS011;60852;52.190;4.422;2023-04-30T10:56:46;6.13;;;6.07;;
68942;SDS011;60852;52.190;4.422;2023-04-30T10:59:13;5.75;;;5.75;;
68942;SDS011;60852;52.190;4.422;2023-04-30T11:01:54;6.04;;;5.95;;
68942;SDS011;60852;52.190;4.422;2023-04-30T11:04:22;5.78;;;5.78;;
68942;SDS011;60852;52.190;4.422;2023-04-30T11:06:54;5.89;;;5.89;;
68942;SDS011;60852;52.190;4.422;2023-04-30T11:09:43;6.66;;;6.66;;
68942;SDS011;60852;52.190;4.422;2023-04-30T11:12:19;6.26;;;6.26;;
68942;SDS011;60852;52.190;4.422;2023-04-30T11:14:52;5.77;;;5.77;;
68942;SDS011;60852;52.190;4.422;2023-04-30T11:17:25;6.10;;;6.10;;
68942;SDS011;60852;52.190;4.422;2023-04-30T11:19:52;6.27;;;6.27;;
68942;SDS011;60852;52.190;4.422;2023-04-30T11:22:21;6.47;;;6.47;;
68942;SDS011;60852;52.190;4.422;2023-04-30T11:24:52;6.10;;;6.10;;
68942;SDS011;60852;52.190;4.422;2023-04-30T11:27:24;6.06;;;6.06;;
68942;SDS011;60852;52.190;4.422;2023-04-30T11:29:51;5.85;;;5.85;;
68942;SDS011;60852;52.190;4.422;2023-04-30T11:32:19;5.92;;;5.92;;
68942;SDS011;60852;52.190;4.422;2023-04-30T11:34:46;5.38;;;5.38;;
68942;SDS011;60852;52.190;4.422;2023-04-30T11:37:14;5.74;;;5.74;;
68942;SDS011;60852;52.190;4.422;2023-04-30T11:39:43;5.53;;;5.53;;
68942;SDS011;60852;52.190;4.422;2023-04-30T11:42:14;5.47;;;5.47;;
68942;SDS011;60852;52.190;4.422;2023-04-30T11:44:42;5.30;;;5.30;;
68942;SDS011;60852;52.190;4.422;2023-04-30T11:47:07;5.94;;;5.94;;
68942;SDS011;60852;52.190;4.422;2023-04-30T11:49:33;5.78;;;5.78;;
68942;SDS011;60852;52.190;4.422;2023-04-30T11:51:59;5.83;;;5.83;;
68942;SDS011;60852;52.190;4.422;2023-04-30T11:54:24;6.84;;;6.84;;
68942;SDS011;60852;52.190;4.422;2023-04-30T11:56:50;6.54;;;6.54;;
68942;SDS011;60852;52.190;4.422;2023-04-30T11:59:16;6.97;;;6.97;;
68942;SDS011;60852;52.190;4.422;2023-04-30T12:01:43;7.16;;;7.04;;
68942;SDS011;60852;52.190;4.422;2023-04-30T12:04:09;6.97;;;6.97;;
68942;SDS011;60852;52.190;4.422;2023-04-30T12:06:35;6.43;;;6.43;;
68942;SDS011;60852;52.190;4.422;2023-04-30T12:09:01;6.82;;;6.82;;
68942;SDS011;60852;52.190;4.422;2023-04-30T12:11:34;6.69;;;6.69;;
68942;SDS011;60852;52.190;4.422;2023-04-30T12:14:01;6.54;;;6.54;;
68942;SDS011;60852;52.190;4.422;2023-04-30T12:19:04;5.94;;;5.94;;
68942;SDS011;60852;52.190;4.422;2023-04-30T12:21:29;5.23;;;5.23;;
68942;SDS011;60852;52.190;4.422;2023-04-30T12:23:55;5.05;;;5.05;;
68942;SDS011;60852;52.190;4.422;2023-04-30T12:26:21;5.57;;;5.57;;
68942;SDS011;60852;52.190;4.422;2023-04-30T12:28:47;5.81;;;5.81;;
68942;SDS011;60852;52.190;4.422;2023-04-30T12:31:16;5.81;;;5.81;;
68942;SDS011;60852;52.190;4.422;2023-04-30T12:33:42;6.01;;;6.01;;
68942;SDS011;60852;52.190;4.422;2023-04-30T12:36:11;6.24;;;6.24;;
68942;SDS011;60852;52.190;4.422;2023-04-30T12:38:41;6.12;;;6.12;;
68942;SDS011;60852;52.190;4.422;2023-04-30T12:41:10;5.64;;;5.64;;
68942;SDS011;60852;52.190;4.422;2023-04-30T12:43:41;5.23;;;5.23;;
68942;SDS011;60852;52.190;4.422;2023-04-30T12:46:06;5.41;;;5.41;;
68942;SDS011;60852;52.190;4.422;2023-04-30T12:48:42;5.35;;;5.35;;
68942;SDS011;60852;52.190;4.422;2023-04-30T12:51:11;5.15;;;5.15;;
68942;SDS011;60852;52.190;4.422;2023-04-30T12:53:44;5.61;;;5.61;;
68942;SDS011;60852;52.190;4.422;2023-04-30T12:56:11;4.98;;;4.98;;
68942;SDS011;60852;52.190;4.422;2023-04-30T12:58:40;5.25;;;5.25;;
68942;SDS011;60852;52.190;4.422;2023-04-30T13:01:12;5.50;;;5.50;;
68942;SDS011;60852;52.190;4.422;2023-04-30T13:03:40;5.67;;;5.67;;
68942;SDS011;60852;52.190;4.422;2023-04-30T13:06:06;5.98;;;5.98;;
68942;SDS011;60852;52.190;4.422;2023-04-30T13:08:31;5.83;;;5.83;;
68942;SDS011;60852;52.190;4.422;2023-04-30T13:10:57;5.12;;;5.12;;
68942;SDS011;60852;52.190;4.422;2023-04-30T13:13:23;4.85;;;4.85;;
68942;SDS011;60852;52.190;4.422;2023-04-30T13:15:48;5.21;;;5.21;;
68942;SDS011;60852;52.190;4.422;2023-04-30T13:18:14;4.82;;;4.82;;
68942;SDS011;60852;52.190;4.422;2023-04-30T13:20:42;5.38;;;5.38;;
68942;SDS011;60852;52.190;4.422;2023-04-30T13:23:08;6.04;;;6.04;;
68942;SDS011;60852;52.190;4.422;2023-04-30T13:25:34;5.69;;;5.69;;
68942;SDS011;60852;52.190;4.422;2023-04-30T13:28:00;5.80;;;5.80;;
68942;SDS011;60852;52.190;4.422;2023-04-30T13:30:26;5.32;;;5.32;;
68942;SDS011;60852;52.190;4.422;2023-04-30T13:32:52;4.95;;;4.95;;
68942;SDS011;60852;52.190;4.422;2023-04-30T13:35:18;5.17;;;5.17;;
68942;SDS011;60852;52.190;4.422;2023-04-30T13:37:44;5.53;;;5.53;;
68942;SDS011;60852;52.190;4.422;2023-04-30T13:40:09;5.62;;;5.62;;
68942;SDS011;60852;52.190;4.422;2023-04-30T13:42:35;5.09;;;5.09;;
68942;SDS011;60852;52.190;4.422;2023-04-30T13:45:05;8.25;;;8.24;;
68942;SDS011;60852;52.190;4.422;2023-04-30T13:47:31;8.54;;;8.47;;
68942;SDS011;60852;52.190;4.422;2023-04-30T13:49:57;8.46;;;8.30;;
68942;SDS011;60852;52.190;4.422;2023-04-30T13:52:22;7.98;;;7.98;;
68942;SDS011;60852;52.190;4.422;2023-04-30T13:54:48;5.78;;;5.75;;
68942;SDS011;60852;52.190;4.422;2023-04-30T13:57:15;5.05;;;5.05;;
68942;SDS011;60852;52.190;4.422;2023-04-30T13:59:40;4.93;;;4.93;;
68942;SDS011;60852;52.190;4.422;2023-04-30T14:02:06;5.02;;;5.02;;
68942;SDS011;60852;52.190;4.422;2023-04-30T14:04:31;4.83;;;4.83;;
68942;SDS011;60852;52.190;4.422;2023-04-30T14:06:57;4.99;;;4.99;;
68942;SDS011;60852;52.190;4.422;2023-04-30T14:09:22;4.05;;;4.05;;
68942;SDS011;60852;52.190;4.422;2023-04-30T14:11:48;4.13;;;4.13;;
68942;SDS011;60852;52.190;4.422;2023-04-30T14:14:14;4.10;;;4.10;;
68942;SDS011;60852;52.190;4.422;2023-04-30T14:16:39;4.47;;;4.47;;
68942;SDS011;60852;52.190;4.422;2023-04-30T14:19:06;4.48;;;4.48;;
68942;SDS011;60852;52.190;4.422;2023-04-30T14:21:32;4.53;;;4.53;;
68942;SDS011;60852;52.190;4.422;2023-04-30T14:23:58;4.41;;;4.41;;
68942;SDS011;60852;52.190;4.422;2023-04-30T14:26:23;3.92;;;3.92;;
68942;SDS011;60852;52.190;4.422;2023-04-30T14:28:49;4.03;;;4.03;;
68942;SDS011;60852;52.190;4.422;2023-04-30T14:31:15;4.08;;;4.08;;
68942;SDS011;60852;52.190;4.422;2023-04-30T14:33:40;4.67;;;4.67;;
68942;SDS011;60852;52.190;4.422;2023-04-30T14:36:05;3.94;;;3.94;;
68942;SDS011;60852;52.190;4.422;2023-04-30T14:38:32;4.56;;;4.56;;
68942;SDS011;60852;52.190;4.422;2023-04-30T14:40:58;4.65;;;4.65;;
68942;SDS011;60852;52.190;4.422;2023-04-30T14:43:23;4.73;;;4.73;;
68942;SDS011;60852;52.190;4.422;2023-04-30T14:45:49;4.56;;;4.56;;
68942;SDS011;60852;52.190;4.422;2023-04-30T14:48:16;4.61;;;4.61;;
68942;SDS011;60852;52.190;4.422;2023-04-30T14:50:45;4.58;;;4.58;;
68942;SDS011;60852;52.190;4.422;2023-04-30T14:53:10;4.48;;;4.48;;
68942;SDS011;60852;52.190;4.422;2023-04-30T14:55:39;4.78;;;4.78;;
68942;SDS011;60852;52.190;4.422;2023-04-30T14:58:05;5.00;;;5.00;;